Time;durP1;ratioP1;P1;durP2;ratioP2;P2;SDS_P1;SDS_P2;PMS_P1;PMS_P2;Temp;Humidity;BMP_temperature;BMP_pressure;BME280_temperature;BME280_humidity;BME280_pressure;Samples;Min_cycle;Max_cycle;Signal;HPM_P1;HPM_P2
2024/01/19 00:00:09;;;;;;;2.77;1.07;;;21.60;46.80;;;;;;5045990;28;20451;-63
2024/01/19 00:02:39;;;;;;;2.40;1.63;;;21.60;46.80;;;;;;5045329;28;20454;-65
2024/01/19 00:05:08;;;;;;;1.30;1.20;;;21.60;46.80;;;;;;5049478;28;20468;-63
2024/01/19 00:07:36;;;;;;;1.23;1.10;;;21.60;46.80;;;;;;5054147;28;20976;-63
2024/01/19 00:10:05;;;;;;;3.70;1.70;;;21.60;46.70;;;;;;5054577;28;20972;-63
2024/01/19 00:12:35;;;;;;;1.50;1.40;;;21.50;46.70;;;;;;5043242;28;20468;-63
2024/01/19 00:15:07;;;;;;;1.67;1.43;;;21.60;46.70;;;;;;5051903;28;20464;-64
2024/01/19 00:17:36;;;;;;;1.20;1.10;;;21.50;46.70;;;;;;5068277;28;20469;-64
2024/01/19 00:20:09;;;;;;;1.40;1.30;;;21.50;46.60;;;;;;5049486;28;20505;-64
2024/01/19 00:22:37;;;;;;;1.77;1.07;;;21.50;46.60;;;;;;5047457;28;20490;-63
2024/01/19 00:25:06;;;;;;;1.60;1.50;;;21.50;46.60;;;;;;5051249;28;20586;-63
2024/01/19 00:27:34;;;;;;;1.07;1.03;;;21.50;46.60;;;;;;5042861;28;20462;-63
2024/01/19 00:30:04;;;;;;;1.23;1.10;;;21.50;46.60;;;;;;5050899;28;20451;-62
2024/01/19 00:32:32;;;;;;;1.40;1.30;;;21.50;46.50;;;;;;5052940;28;20458;-62
2024/01/19 00:35:00;;;;;;;2.33;1.70;;;21.50;46.50;;;;;;5045641;28;20456;-63
2024/01/19 00:37:30;;;;;;;1.80;1.57;;;21.50;46.50;;;;;;5052406;28;20487;-63
2024/01/19 00:39:58;;;;;;;1.80;1.70;;;21.50;46.50;;;;;;5044513;28;20456;-63
2024/01/19 00:42:26;;;;;;;1.30;1.20;;;21.50;46.50;;;;;;5047183;28;20460;-63
2024/01/19 00:44:54;;;;;;;2.20;1.40;;;21.40;46.50;;;;;;5049640;28;20459;-63
2024/01/19 00:47:23;;;;;;;2.00;1.37;;;21.40;46.50;;;;;;5050015;28;20456;-63
2024/01/19 00:49:51;;;;;;;1.17;1.07;;;21.40;46.50;;;;;;5051378;28;20461;-63
2024/01/19 00:52:19;;;;;;;1.30;1.20;;;21.40;46.50;;;;;;5050238;28;20525;-62
2024/01/19 00:54:49;;;;;;;1.57;1.30;;;21.40;46.50;;;;;;5050617;28;20943;-63
2024/01/19 00:57:17;;;;;;;1.23;1.13;;;21.40;46.40;;;;;;5053330;28;20460;-63
2024/01/19 00:59:46;;;;;;;1.33;1.20;;;21.40;46.50;;;;;;5053812;28;20436;-64
2024/01/19 01:02:14;;;;;;;1.77;1.67;;;21.40;46.40;;;;;;5054099;28;20911;-64
2024/01/19 01:04:42;;;;;;;1.27;1.17;;;21.40;46.40;;;;;;5057669;28;20453;-62
2024/01/19 01:07:10;;;;;;;1.20;1.13;;;21.40;46.40;;;;;;5046673;28;20504;-63
2024/01/19 01:09:39;;;;;;;1.43;1.33;;;21.30;46.50;;;;;;5041775;28;20458;-62
2024/01/19 01:12:10;;;;;;;1.20;1.10;;;21.30;46.40;;;;;;5041390;28;20462;-62
2024/01/19 01:14:38;;;;;;;2.37;1.70;;;21.30;46.50;;;;;;5050381;28;21346;-62
2024/01/19 01:17:06;;;;;;;1.20;1.10;;;21.30;46.50;;;;;;5052667;28;20455;-63
2024/01/19 01:19:35;;;;;;;1.97;1.50;;;21.30;46.50;;;;;;5046192;28;20454;-64
2024/01/19 01:22:05;;;;;;;1.63;1.53;;;21.30;46.50;;;;;;5039404;28;20453;-62
2024/01/19 01:24:33;;;;;;;1.47;1.37;;;21.30;46.50;;;;;;5047734;28;20460;-63
2024/01/19 01:27:02;;;;;;;1.17;1.00;;;21.30;46.50;;;;;;5039805;28;20481;-63
2024/01/19 01:29:31;;;;;;;1.50;1.40;;;21.30;46.50;;;;;;5047841;28;20845;-66
2024/01/19 01:32:00;;;;;;;1.73;1.63;;;21.30;46.40;;;;;;5046806;28;20817;-65
2024/01/19 01:34:28;;;;;;;1.50;1.40;;;21.30;46.40;;;;;;5044685;28;20456;-62
2024/01/19 01:36:56;;;;;;;1.40;1.30;;;21.30;46.40;;;;;;5062936;28;20443;-63
2024/01/19 01:39:25;;;;;;;1.23;1.10;;;21.30;46.50;;;;;;5051466;28;20481;-64
2024/01/19 01:41:53;;;;;;;1.87;1.73;;;21.20;46.50;;;;;;5047178;28;20468;-62
2024/01/19 01:44:21;;;;;;;1.30;1.03;;;21.20;46.40;;;;;;5049402;28;20485;-63
2024/01/19 01:46:52;;;;;;;1.63;1.53;;;21.20;46.40;;;;;;5051150;28;20474;-64
2024/01/19 01:49:21;;;;;;;1.43;1.30;;;21.20;46.50;;;;;;5043233;28;20556;-64
2024/01/19 01:51:50;;;;;;;0.93;0.93;;;21.20;46.40;;;;;;5053196;28;20427;-62
2024/01/19 01:54:19;;;;;;;1.40;1.30;;;21.30;46.40;;;;;;5054000;28;20439;-64
2024/01/19 01:56:49;;;;;;;1.30;1.20;;;21.20;46.40;;;;;;5062314;28;20448;-62
2024/01/19 01:59:19;;;;;;;1.10;1.10;;;21.20;46.40;;;;;;5046246;28;20449;-62
2024/01/19 02:01:48;;;;;;;1.57;1.47;;;21.20;46.40;;;;;;5041861;28;20460;-62
2024/01/19 02:04:17;;;;;;;1.47;1.37;;;21.20;46.40;;;;;;5051847;28;20547;-62
2024/01/19 02:06:46;;;;;;;1.73;1.00;;;21.20;46.40;;;;;;5045237;28;20464;-63
2024/01/19 02:09:14;;;;;;;1.37;1.27;;;21.20;46.40;;;;;;5051074;28;20613;-63
2024/01/19 02:11:43;;;;;;;1.83;1.30;;;21.20;46.30;;;;;;5052505;28;20442;-62
2024/01/19 02:14:12;;;;;;;2.30;1.50;;;21.20;46.40;;;;;;5051212;28;20451;-63
2024/01/19 02:16:40;;;;;;;1.27;1.17;;;21.20;46.40;;;;;;5046817;28;20458;-63
2024/01/19 02:19:08;;;;;;;1.27;1.17;;;21.20;46.40;;;;;;5051222;28;20459;-62
2024/01/19 02:21:38;;;;;;;1.93;1.77;;;21.20;46.40;;;;;;5044625;28;20459;-62
2024/01/19 02:24:12;;;;;;;1.40;1.30;;;21.10;46.40;;;;;;5044834;28;20475;-63
2024/01/19 02:26:40;;;;;;;1.13;1.13;;;21.10;46.40;;;;;;5043815;28;20476;-62
2024/01/19 02:29:09;;;;;;;1.70;1.60;;;21.10;46.40;;;;;;5046669;28;20519;-63
2024/01/19 02:31:37;;;;;;;1.73;1.30;;;21.10;46.40;;;;;;5047698;28;20556;-63
2024/01/19 02:34:06;;;;;;;1.20;1.10;;;21.10;46.40;;;;;;5051424;28;20447;-65
2024/01/19 02:36:35;;;;;;;1.77;1.67;;;21.10;46.40;;;;;;5046502;28;20453;-63
2024/01/19 02:39:04;;;;;;;1.50;1.40;;;21.10;46.40;;;;;;5048262;28;20458;-64
2024/01/19 02:41:34;;;;;;;1.50;1.17;;;21.10;46.40;;;;;;5050870;28;20832;-62
2024/01/19 02:44:02;;;;;;;1.40;1.30;;;21.10;46.40;;;;;;5052378;28;20473;-63
2024/01/19 02:46:30;;;;;;;1.53;1.43;;;21.10;46.40;;;;;;5048186;28;20558;-63
2024/01/19 02:48:59;;;;;;;1.20;1.10;;;21.00;46.40;;;;;;5055361;28;20510;-63
2024/01/19 02:51:27;;;;;;;1.50;1.40;;;21.00;46.40;;;;;;5040691;28;20466;-62
2024/01/19 02:53:55;;;;;;;1.17;1.10;;;21.00;46.40;;;;;;5041100;28;20455;-63
2024/01/19 02:56:24;;;;;;;1.77;1.67;;;21.00;46.40;;;;;;5051993;28;20522;-62
2024/01/19 02:58:53;;;;;;;1.67;1.30;;;21.00;46.40;;;;;;5050805;28;20461;-66
2024/01/19 03:01:22;;;;;;;2.00;1.90;;;21.00;46.40;;;;;;5046823;28;20459;-63
2024/01/19 03:03:50;;;;;;;1.23;1.13;;;21.00;46.40;;;;;;5046081;28;20459;-64
2024/01/19 03:06:18;;;;;;;1.53;1.43;;;21.00;46.40;;;;;;5044717;28;20475;-63
2024/01/19 03:08:46;;;;;;;1.23;1.20;;;21.00;46.40;;;;;;5049318;28;20476;-63
2024/01/19 03:11:15;;;;;;;1.73;1.40;;;21.00;46.50;;;;;;5050731;28;20448;-62
2024/01/19 03:13:43;;;;;;;1.60;1.50;;;21.00;46.50;;;;;;5051452;28;20513;-63
2024/01/19 03:16:12;;;;;;;1.40;1.27;;;21.00;46.50;;;;;;5050646;28;20517;-62
2024/01/19 03:18:41;;;;;;;1.70;1.50;;;21.00;46.50;;;;;;5050299;28;20516;-63
2024/01/19 03:21:10;;;;;;;1.50;1.40;;;21.00;46.50;;;;;;5050011;28;20799;-62
2024/01/19 03:23:39;;;;;;;1.60;1.50;;;20.90;46.50;;;;;;5043079;28;20452;-62
2024/01/19 03:26:06;;;;;;;1.70;1.60;;;20.90;46.50;;;;;;5051187;28;20451;-62
2024/01/19 03:28:34;;;;;;;1.83;1.70;;;20.90;46.50;;;;;;5050272;28;20606;-62
2024/01/19 03:31:03;;;;;;;1.50;1.40;;;20.90;46.50;;;;;;5046713;28;20467;-63
2024/01/19 03:33:32;;;;;;;3.60;2.17;;;20.90;46.60;;;;;;5031328;28;20430;-63
2024/01/19 03:36:00;;;;;;;2.07;1.50;;;20.90;46.60;;;;;;5057808;28;20459;-63
2024/01/19 03:38:30;;;;;;;1.33;1.33;;;20.90;46.60;;;;;;5049741;28;21091;-63
2024/01/19 03:41:00;;;;;;;2.40;1.30;;;20.90;46.50;;;;;;5047843;28;20825;-63
2024/01/19 03:43:28;;;;;;;3.17;1.70;;;20.90;46.60;;;;;;5045614;28;20525;-62
2024/01/19 03:45:56;;;;;;;2.37;1.87;;;20.90;46.60;;;;;;5037637;28;20459;-62
2024/01/19 03:48:24;;;;;;;1.70;1.60;;;20.90;46.60;;;;;;5048568;28;20475;-62
2024/01/19 03:50:53;;;;;;;1.57;1.47;;;20.80;46.60;;;;;;5050136;28;20958;-62
2024/01/19 03:53:21;;;;;;;1.50;1.40;;;20.80;46.60;;;;;;5037306;28;20460;-63
2024/01/19 03:55:49;;;;;;;1.90;1.80;;;20.80;46.70;;;;;;5048252;28;20969;-64
2024/01/19 03:58:18;;;;;;;1.30;1.20;;;20.80;46.60;;;;;;5042059;28;20529;-65
2024/01/19 04:00:46;;;;;;;2.03;1.50;;;20.80;46.60;;;;;;5047755;28;20517;-63
2024/01/19 04:03:15;;;;;;;1.83;1.73;;;20.80;46.60;;;;;;5042701;28;20539;-62
2024/01/19 04:05:44;;;;;;;1.97;1.77;;;20.80;46.70;;;;;;5046501;28;20463;-62
2024/01/19 04:08:14;;;;;;;2.30;1.53;;;20.80;46.70;;;;;;5048798;28;20994;-62
2024/01/19 04:10:44;;;;;;;1.23;1.13;;;20.80;46.70;;;;;;5050405;28;20800;-65
2024/01/19 04:13:13;;;;;;;1.73;1.63;;;20.70;46.60;;;;;;5051542;28;20447;-63
2024/01/19 04:15:41;;;;;;;1.50;1.40;;;20.70;46.60;;;;;;5041633;28;20451;-63
2024/01/19 04:18:09;;;;;;;1.27;1.17;;;20.70;46.60;;;;;;5050928;28;20428;-63
2024/01/19 04:20:37;;;;;;;1.50;1.40;;;20.70;46.50;;;;;;5043141;28;20934;-63
2024/01/19 04:23:06;;;;;;;1.70;1.60;;;20.70;46.40;;;;;;5047895;28;20546;-63
2024/01/19 04:25:35;;;;;;;2.03;1.80;;;20.70;46.30;;;;;;5056837;28;20455;-62
2024/01/19 04:28:04;;;;;;;2.03;1.60;;;20.70;46.30;;;;;;5066874;28;20466;-63
2024/01/19 04:30:32;;;;;;;2.37;2.17;;;20.80;46.20;;;;;;5045370;28;20502;-62
2024/01/19 04:33:00;;;;;;;1.70;1.60;;;20.80;46.20;;;;;;5048256;28;20528;-63
2024/01/19 04:35:28;;;;;;;2.10;1.90;;;20.80;46.10;;;;;;5044242;28;20455;-62
2024/01/19 04:37:57;;;;;;;1.50;1.40;;;20.80;46.10;;;;;;5045960;28;20454;-64
2024/01/19 04:40:25;;;;;;;1.90;1.80;;;20.80;46.00;;;;;;5043476;28;20450;-62
2024/01/19 04:42:55;;;;;;;1.37;1.27;;;20.80;46.00;;;;;;5051972;28;20466;-63
2024/01/19 04:45:23;;;;;;;2.10;1.73;;;20.90;46.00;;;;;;5046298;28;20990;-63
2024/01/19 04:47:51;;;;;;;1.63;1.53;;;20.90;45.90;;;;;;5050640;28;20467;-62
2024/01/19 04:50:19;;;;;;;2.37;2.17;;;20.90;45.90;;;;;;5047209;28;21204;-62
2024/01/19 04:52:47;;;;;;;1.67;1.57;;;20.90;45.90;;;;;;5053969;28;20439;-63
2024/01/19 04:55:16;;;;;;;2.57;2.10;;;20.90;45.90;;;;;;5052652;28;20463;-63
2024/01/19 04:57:45;;;;;;;2.33;2.10;;;20.90;45.90;;;;;;5054960;28;20436;-65
2024/01/19 05:00:16;;;;;;;3.07;2.60;;;20.90;45.90;;;;;;5045897;28;20843;-63
2024/01/19 05:02:44;;;;;;;2.07;1.97;;;21.00;45.90;;;;;;5054672;28;20459;-62
2024/01/19 05:05:13;;;;;;;2.07;1.97;;;21.00;45.80;;;;;;5043471;28;20464;-63
2024/01/19 05:07:41;;;;;;;2.00;1.87;;;21.00;45.80;;;;;;5051698;28;20519;-63
2024/01/19 05:10:10;;;;;;;2.30;1.90;;;21.00;45.80;;;;;;5052474;28;20455;-63
2024/01/19 05:12:39;;;;;;;1.83;1.73;;;21.10;45.80;;;;;;5053279;28;20452;-63
2024/01/19 05:15:08;;;;;;;1.70;1.60;;;21.10;45.80;;;;;;5051208;28;20514;-66
2024/01/19 05:17:38;;;;;;;2.10;1.90;;;21.10;45.80;;;;;;5047392;28;20519;-63
2024/01/19 05:20:07;;;;;;;1.87;1.77;;;21.10;45.80;;;;;;5044759;28;20456;-64
2024/01/19 05:22:35;;;;;;;2.53;1.93;;;21.10;45.80;;;;;;5052183;28;20459;-63
2024/01/19 05:25:03;;;;;;;1.47;1.37;;;21.10;45.80;;;;;;5053270;28;20542;-62
2024/01/19 05:27:32;;;;;;;2.23;2.07;;;21.20;45.70;;;;;;5052540;28;20497;-62
2024/01/19 05:30:00;;;;;;;1.63;1.53;;;21.20;45.70;;;;;;5050543;28;20472;-62
2024/01/19 05:32:28;;;;;;;2.37;2.20;;;21.20;45.70;;;;;;5048981;28;20453;-63
2024/01/19 05:34:58;;;;;;;1.90;1.70;;;21.30;45.90;;;;;;5047023;28;20848;-62
2024/01/19 05:37:27;;;;;;;2.10;1.80;;;21.30;46.00;;;;;;5039430;28;20470;-65
2024/01/19 05:39:55;;;;;;;1.60;1.50;;;21.30;46.10;;;;;;5044673;28;21007;-62
2024/01/19 05:42:23;;;;;;;1.90;1.80;;;21.40;46.20;;;;;;5047834;28;20459;-64
2024/01/19 05:44:51;;;;;;;1.57;1.47;;;21.40;46.30;;;;;;5047267;28;21140;-64
2024/01/19 05:47:19;;;;;;;1.80;1.70;;;21.40;46.40;;;;;;5043836;28;20455;-63
2024/01/19 05:49:48;;;;;;;1.60;1.50;;;21.40;46.50;;;;;;5047338;28;20500;-62
2024/01/19 05:52:18;;;;;;;1.93;1.63;;;21.40;46.70;;;;;;5049842;28;20465;-64
2024/01/19 05:54:46;;;;;;;1.50;1.40;;;21.40;46.90;;;;;;5038698;28;20483;-63
2024/01/19 05:57:14;;;;;;;1.67;1.47;;;21.40;47.20;;;;;;5050882;28;20454;-62
2024/01/19 05:59:43;;;;;;;1.43;1.33;;;21.40;47.40;;;;;;5043130;28;20461;-62
2024/01/19 06:02:11;;;;;;;1.50;1.40;;;21.30;47.50;;;;;;5035582;28;20488;-64
2024/01/19 06:04:41;;;;;;;1.60;1.50;;;21.30;47.70;;;;;;5040552;28;20509;-64
2024/01/19 06:07:09;;;;;;;2.83;1.53;;;21.30;48.00;;;;;;5059625;28;20874;-63
2024/01/19 06:09:38;;;;;;;1.40;1.30;;;21.30;48.20;;;;;;5051031;28;20761;-63
2024/01/19 06:12:07;;;;;;;1.77;1.57;;;21.30;48.40;;;;;;5050815;28;20456;-64
2024/01/19 06:14:35;;;;;;;1.63;1.53;;;21.30;48.60;;;;;;5054774;28;20487;-63
2024/01/19 06:17:04;;;;;;;1.83;1.73;;;21.30;48.80;;;;;;5061704;28;20592;-66
2024/01/19 06:19:32;;;;;;;1.60;1.50;;;21.30;49.00;;;;;;5056225;28;21354;-63
2024/01/19 06:22:00;;;;;;;2.93;1.90;;;21.30;49.10;;;;;;5051799;28;20460;-63
2024/01/19 06:24:34;;;;;;;2.17;1.97;;;21.30;49.20;;;;;;5048329;28;21099;-62
2024/01/19 06:27:04;;;;;;;1.90;1.80;;;21.30;49.40;;;;;;5043558;28;20473;-63
2024/01/19 06:29:33;;;;;;;1.83;1.73;;;21.30;49.60;;;;;;5044606;28;20475;-64
2024/01/19 06:32:01;;;;;;;2.57;1.67;;;21.40;49.70;;;;;;5035918;28;20451;-64
2024/01/19 06:34:30;;;;;;;2.13;1.27;;;21.40;49.80;;;;;;5036407;28;20464;-63
2024/01/19 06:36:58;;;;;;;2.20;1.90;;;21.40;49.90;;;;;;5041306;28;21355;-63
2024/01/19 06:39:26;;;;;;;1.73;1.63;;;21.40;50.00;;;;;;5045545;28;20520;-64
2024/01/19 06:41:55;;;;;;;2.23;2.00;;;21.40;50.00;;;;;;5045823;28;20459;-64
2024/01/19 06:44:24;;;;;;;1.73;1.63;;;21.40;50.00;;;;;;5051429;28;20551;-63
2024/01/19 06:46:53;;;;;;;2.20;1.50;;;21.40;49.90;;;;;;5044708;28;20926;-63
2024/01/19 06:49:21;;;;;;;1.77;1.67;;;21.40;49.70;;;;;;5058481;28;20479;-64
2024/01/19 06:51:49;;;;;;;2.53;1.90;;;21.40;49.60;;;;;;5043835;28;20935;-63
2024/01/19 06:54:17;;;;;;;1.70;1.60;;;21.40;49.60;;;;;;5055557;28;20532;-63
2024/01/19 06:56:46;;;;;;;2.33;2.13;;;21.40;49.50;;;;;;5065734;28;20445;-65
2024/01/19 06:59:14;;;;;;;2.27;1.70;;;21.40;49.40;;;;;;5068678;28;20452;-63
2024/01/19 07:01:43;;;;;;;2.17;2.03;;;21.40;49.30;;;;;;5041723;28;20495;-63
2024/01/19 07:04:12;;;;;;;1.87;1.77;;;21.40;49.30;;;;;;5057522;28;20446;-62
2024/01/19 07:06:40;;;;;;;3.00;2.17;;;21.40;49.20;;;;;;5054209;28;20458;-62
2024/01/19 07:09:09;;;;;;;2.30;2.20;;;21.40;49.20;;;;;;5042762;28;20507;-64
2024/01/19 07:11:37;;;;;;;2.90;2.07;;;21.40;49.10;;;;;;5046395;28;20467;-67
2024/01/19 07:14:05;;;;;;;2.60;2.40;;;21.30;49.10;;;;;;5042229;28;20474;-63
2024/01/19 07:16:33;;;;;;;2.40;2.20;;;21.40;49.00;;;;;;5047302;28;20453;-64
2024/01/19 07:19:03;;;;;;;3.00;2.80;;;21.40;49.40;;;;;;5055707;28;20451;-62
2024/01/19 07:21:36;;;;;;;4.50;3.23;;;21.40;49.60;;;;;;5046806;28;20448;-61
2024/01/19 07:24:04;;;;;;;3.37;3.07;;;21.40;49.70;;;;;;5045221;28;20461;-62
2024/01/19 07:26:33;;;;;;;4.20;3.10;;;21.40;49.80;;;;;;5045819;28;20488;-62
2024/01/19 07:29:04;;;;;;;3.87;3.37;;;21.50;49.70;;;;;;5042273;28;20469;-61
2024/01/19 07:31:33;;;;;;;5.23;3.20;;;21.50;49.60;;;;;;5048094;28;20469;-62
2024/01/19 07:34:03;;;;;;;4.23;3.57;;;21.50;49.40;;;;;;5048885;28;20462;-64
2024/01/19 07:36:31;;;;;;;4.00;3.60;;;21.60;49.30;;;;;;5042892;28;20546;-66
2024/01/19 07:39:00;;;;;;;3.93;3.57;;;21.60;49.20;;;;;;5042964;28;20458;-63
2024/01/19 07:41:28;;;;;;;4.10;3.80;;;21.60;49.10;;;;;;5047972;28;20473;-66
2024/01/19 07:43:56;;;;;;;4.10;3.70;;;21.60;49.00;;;;;;5045230;28;20597;-64
2024/01/19 07:46:25;;;;;;;4.40;4.00;;;21.60;48.90;;;;;;5042428;28;20486;-62
2024/01/19 07:48:53;;;;;;;4.60;4.20;;;21.60;48.70;;;;;;5045259;28;20452;-63
2024/01/19 07:51:24;;;;;;;5.67;4.30;;;21.60;48.70;;;;;;5051069;28;20454;-64
2024/01/19 07:53:54;;;;;;;8.73;4.80;;;21.60;48.50;;;;;;5041903;28;20471;-62
2024/01/19 07:56:22;;;;;;;4.70;4.30;;;21.60;48.30;;;;;;5045500;28;20951;-63
2024/01/19 07:58:51;;;;;;;4.60;4.20;;;21.60;48.20;;;;;;5053377;28;20552;-63
2024/01/19 08:01:19;;;;;;;5.17;4.80;;;21.60;48.00;;;;;;5043415;28;20453;-66
2024/01/19 08:03:47;;;;;;;4.53;4.13;;;21.60;47.70;;;;;;5045774;28;20515;-67
2024/01/19 08:06:16;;;;;;;4.57;4.03;;;21.60;47.70;;;;;;5044471;28;20456;-67
2024/01/19 08:08:45;;;;;;;5.00;4.60;;;21.60;47.90;;;;;;5046568;28;20500;-66
2024/01/19 08:11:14;;;;;;;3.83;3.53;;;21.60;48.00;;;;;;5040634;28;20561;-65
2024/01/19 08:13:42;;;;;;;4.20;3.80;;;21.70;47.90;;;;;;5042120;28;20503;-66
2024/01/19 08:16:10;;;;;;;4.63;4.17;;;21.70;48.00;;;;;;5037412;28;20456;-67
2024/01/19 08:18:38;;;;;;;4.37;4.07;;;21.70;48.00;;;;;;5038441;28;20477;-67
2024/01/19 08:21:07;;;;;;;4.33;3.90;;;21.70;48.00;;;;;;5043373;28;20466;-66
2024/01/19 08:23:35;;;;;;;3.90;3.60;;;21.80;48.00;;;;;;5046142;28;20453;-67
2024/01/19 08:26:11;;;;;;;5.50;3.73;;;21.80;48.00;;;;;;5043405;28;20574;-66
2024/01/19 08:28:39;;;;;;;4.00;3.70;;;21.90;48.00;;;;;;5043545;28;20876;-68
2024/01/19 08:31:12;;;;;;;4.00;3.60;;;21.90;48.00;;;;;;5044311;28;21008;-66
2024/01/19 08:33:40;;;;;;;4.40;3.50;;;22.00;47.90;;;;;;5051375;28;20457;-68
2024/01/19 08:36:09;;;;;;;4.03;3.73;;;22.00;47.80;;;;;;5046106;28;20464;-67
2024/01/19 08:38:37;;;;;;;4.50;4.10;;;22.10;47.70;;;;;;5046791;28;20544;-66
2024/01/19 08:41:08;;;;;;;3.77;3.47;;;22.10;47.60;;;;;;5044338;28;20505;-67
2024/01/19 08:43:36;;;;;;;4.13;3.77;;;22.10;47.50;;;;;;5045859;28;20518;-67
2024/01/19 08:46:04;;;;;;;3.90;3.60;;;22.20;47.40;;;;;;5043917;28;20796;-67
2024/01/19 08:48:33;;;;;;;4.47;4.13;;;22.20;47.30;;;;;;5043533;28;20447;-66
2024/01/19 08:51:02;;;;;;;4.27;3.87;;;22.10;47.30;;;;;;5043906;28;20501;-66
2024/01/19 08:53:31;;;;;;;3.80;3.60;;;22.10;47.30;;;;;;5044275;28;20941;-67
2024/01/19 08:56:00;;;;;;;3.73;3.50;;;22.10;47.20;;;;;;5045502;28;20461;-67
2024/01/19 08:58:31;;;;;;;3.63;3.33;;;22.10;47.30;;;;;;5044043;28;20542;-68
2024/01/19 09:01:03;;;;;;;4.50;3.93;;;22.10;47.30;;;;;;5045940;28;20458;-67
2024/01/19 09:03:31;;;;;;;4.77;4.23;;;22.10;47.30;;;;;;5042024;28;20776;-66
2024/01/19 09:05:59;;;;;;;4.17;3.87;;;22.10;47.30;;;;;;5044158;28;20538;-67
2024/01/19 09:08:28;;;;;;;4.07;3.60;;;22.10;47.30;;;;;;5040501;28;20532;-68
2024/01/19 09:10:56;;;;;;;4.00;3.70;;;22.10;47.30;;;;;;5045666;28;20822;-69
2024/01/19 09:13:25;;;;;;;4.50;4.10;;;22.10;47.30;;;;;;5043986;28;20499;-67
2024/01/19 09:15:56;;;;;;;4.30;4.00;;;22.10;47.30;;;;;;5050795;28;20445;-70
2024/01/19 09:18:25;;;;;;;4.20;3.90;;;22.10;47.40;;;;;;5046113;28;20839;-66
2024/01/19 09:20:53;;;;;;;4.27;3.77;;;22.10;47.40;;;;;;5048527;28;20466;-67
2024/01/19 09:23:21;;;;;;;4.97;4.47;;;22.10;47.30;;;;;;5048273;28;20448;-66
2024/01/19 09:25:50;;;;;;;3.70;3.40;;;22.10;47.30;;;;;;5050089;28;20465;-67
2024/01/19 09:28:19;;;;;;;4.10;3.80;;;22.20;47.30;;;;;;5048941;28;20508;-67
2024/01/19 09:30:48;;;;;;;3.40;3.20;;;22.20;47.20;;;;;;5051301;28;20488;-67
2024/01/19 09:33:17;;;;;;;3.80;3.50;;;22.20;47.20;;;;;;5050321;28;20941;-67
2024/01/19 09:35:46;;;;;;;3.90;3.43;;;22.30;47.10;;;;;;5044318;28;20971;-67
2024/01/19 09:38:14;;;;;;;3.60;3.30;;;22.30;47.00;;;;;;5044301;28;20477;-67
2024/01/19 09:40:45;;;;;;;4.10;3.80;;;22.30;47.00;;;;;;5045353;28;20973;-66
2024/01/19 09:43:13;;;;;;;4.23;3.93;;;22.40;46.90;;;;;;5049068;28;20843;-67
2024/01/19 09:45:42;;;;;;;3.90;3.60;;;22.40;46.90;;;;;;5052517;28;20461;-67
2024/01/19 09:48:22;;;;;;;3.97;3.37;;;22.40;46.90;;;;;;5046450;28;20470;-69
2024/01/19 09:50:53;;;;;;;3.70;3.50;;;22.40;46.80;;;;;;5047508;28;20495;-67
2024/01/19 09:53:26;;;;;;;3.63;3.33;;;22.40;46.80;;;;;;5051503;28;21218;-67
2024/01/19 09:55:55;;;;;;;4.10;3.80;;;22.40;46.80;;;;;;5052091;28;20512;-67
2024/01/19 09:58:24;;;;;;;4.20;3.60;;;22.30;46.80;;;;;;5048784;28;20956;-68
2024/01/19 10:00:52;;;;;;;3.70;3.40;;;22.30;46.80;;;;;;5052642;28;20466;-67
2024/01/19 10:03:24;;;;;;;3.50;3.20;;;22.30;46.80;;;;;;5048254;28;20489;-69
2024/01/19 10:05:52;;;;;;;3.50;3.20;;;22.30;46.80;;;;;;5051358;28;20476;-66
2024/01/19 10:08:21;;;;;;;3.87;3.47;;;22.30;46.80;;;;;;5049852;28;20489;-65
2024/01/19 10:10:51;;;;;;;3.43;3.13;;;22.30;46.80;;;;;;5050735;28;20500;-66
2024/01/19 10:13:20;;;;;;;3.27;3.07;;;22.30;46.50;;;;;;5043873;28;20462;-69
2024/01/19 10:15:48;;;;;;;3.30;3.10;;;22.30;46.30;;;;;;5052298;28;20477;-68
2024/01/19 10:18:19;;;;;;;3.43;3.13;;;22.30;46.40;;;;;;5052989;28;20473;-67
2024/01/19 10:20:51;;;;;;;3.00;2.80;;;22.30;46.40;;;;;;5050601;28;20454;-68
2024/01/19 10:23:21;;;;;;;2.87;2.67;;;22.30;46.40;;;;;;5048527;28;20468;-67
2024/01/19 10:25:50;;;;;;;3.50;3.30;;;22.40;46.40;;;;;;5050865;28;20904;-68
2024/01/19 10:28:33;;;;;;;3.30;3.10;;;22.40;46.40;;;;;;5051826;28;20470;-70
2024/01/19 10:31:21;;;;;;;2.93;2.60;;;22.40;46.50;;;;;;5047033;28;20818;-68
2024/01/19 10:33:50;;;;;;;2.60;2.50;;;22.50;46.40;;;;;;5046221;28;20453;-67
2024/01/19 10:36:20;;;;;;;3.13;2.93;;;22.50;46.30;;;;;;5049269;28;20588;-68
2024/01/19 10:38:49;;;;;;;3.70;3.00;;;22.60;46.20;;;;;;5052382;28;20608;-68
2024/01/19 10:41:18;;;;;;;3.70;3.40;;;22.70;46.10;;;;;;5048452;28;20494;-68
2024/01/19 10:43:46;;;;;;;2.90;2.70;;;22.80;45.90;;;;;;5048927;28;20473;-67
2024/01/19 10:46:19;;;;;;;3.00;2.80;;;22.80;45.80;;;;;;5049524;28;20925;-68
2024/01/19 10:48:50;;;;;;;3.30;3.00;;;22.90;45.70;;;;;;5045409;28;20547;-68
2024/01/19 10:51:21;;;;;;;3.00;2.70;;;22.90;45.60;;;;;;5050694;28;20863;-67
2024/01/19 10:53:50;;;;;;;2.60;2.40;;;22.90;45.50;;;;;;5046416;28;20505;-67
2024/01/19 10:56:20;;;;;;;2.87;2.67;;;22.90;45.40;;;;;;5045488;28;20565;-69
2024/01/19 10:58:49;;;;;;;2.33;2.23;;;22.90;45.40;;;;;;5048515;28;20458;-68
2024/01/19 11:01:18;;;;;;;2.40;2.03;;;22.90;45.50;;;;;;5046367;28;20455;-69
2024/01/19 11:03:47;;;;;;;2.50;2.30;;;22.80;45.60;;;;;;5050957;28;20865;-68
2024/01/19 11:06:17;;;;;;;2.27;2.10;;;22.90;45.50;;;;;;5050781;28;21028;-67
2024/01/19 11:08:47;;;;;;;2.67;2.47;;;23.10;45.30;;;;;;5047885;28;20485;-69
2024/01/19 11:11:16;;;;;;;2.63;2.43;;;23.20;45.00;;;;;;5046701;28;21014;-69
2024/01/19 11:13:47;;;;;;;2.23;2.03;;;23.40;44.90;;;;;;5045482;28;22989;-67
2024/01/19 11:16:21;;;;;;;2.33;2.17;;;23.50;44.70;;;;;;5052648;28;20447;-67
2024/01/19 11:18:50;;;;;;;2.23;1.93;;;23.70;44.50;;;;;;5049185;28;20454;-68
2024/01/19 11:21:18;;;;;;;2.20;2.10;;;23.90;44.30;;;;;;5050423;28;20573;-69
2024/01/19 11:23:49;;;;;;;2.67;2.37;;;24.00;44.10;;;;;;5043093;28;20462;-68
2024/01/19 11:26:25;;;;;;;3.20;1.73;;;24.10;43.90;;;;;;5048219;28;20520;-64
2024/01/19 11:28:58;;;;;;;2.53;2.37;;;24.20;43.50;;;;;;5047238;28;20468;-64
2024/01/19 11:31:29;;;;;;;2.00;1.90;;;24.20;43.00;;;;;;5048559;28;20462;-64
2024/01/19 11:33:57;;;;;;;2.50;2.10;;;24.30;42.70;;;;;;5043554;28;20922;-65
2024/01/19 11:36:50;;;;;;;2.00;1.90;;;24.30;42.90;;;;;;5052964;28;20471;-66
2024/01/19 11:39:44;;;;;;;1.70;1.60;;;24.30;42.80;;;;;;5041845;28;20539;-65
2024/01/19 11:42:44;;;;;;;1.90;1.80;;;24.40;42.70;;;;;;5037226;28;20546;-65
2024/01/19 11:45:39;;;;;;;2.20;1.93;;;24.30;42.80;;;;;;5054551;28;20463;-65
2024/01/19 11:48:08;;;;;;;1.63;1.53;;;24.20;43.00;;;;;;5054102;28;20459;-65
2024/01/19 11:50:44;;;;;;;1.87;1.77;;;24.00;43.10;;;;;;5050234;28;20515;-65
2024/01/19 11:53:13;;;;;;;3.63;1.50;;;23.80;43.30;;;;;;5054985;28;20562;-66
2024/01/19 11:55:45;;;;;;;3.47;2.20;;;23.70;43.50;;;;;;5049446;28;20859;-65
2024/01/19 11:58:31;;;;;;;1.97;1.87;;;23.50;43.70;;;;;;5050616;28;20464;-65
2024/01/19 12:01:01;;;;;;;2.07;1.93;;;23.40;43.80;;;;;;5043817;28;20459;-68
2024/01/19 12:03:30;;;;;;;1.90;1.80;;;23.30;43.90;;;;;;5055581;28;20450;-68
2024/01/19 12:06:01;;;;;;;2.20;1.83;;;23.20;44.00;;;;;;5044493;28;20454;-68
2024/01/19 12:08:30;;;;;;;3.50;1.80;;;23.10;44.00;;;;;;5059978;28;20501;-68
2024/01/19 12:11:07;;;;;;;2.27;2.10;;;23.10;44.00;;;;;;5050526;28;20505;-68
2024/01/19 12:13:37;;;;;;;2.33;2.20;;;23.00;44.00;;;;;;5035619;28;20833;-68
2024/01/19 12:16:12;;;;;;;1.93;1.83;;;22.90;44.10;;;;;;5047224;28;20450;-68
2024/01/19 12:18:41;;;;;;;2.00;1.80;;;22.80;44.20;;;;;;5041325;28;20919;-68
2024/01/19 12:21:09;;;;;;;1.87;1.77;;;22.80;44.30;;;;;;5053903;28;20466;-68
2024/01/19 12:23:39;;;;;;;2.23;2.03;;;22.70;44.40;;;;;;5040665;28;20464;-68
2024/01/19 12:26:08;;;;;;;1.87;1.70;;;22.70;44.50;;;;;;5037901;28;20515;-68
2024/01/19 12:28:37;;;;;;;1.90;1.80;;;22.60;44.60;;;;;;5045476;28;20446;-68
2024/01/19 12:31:20;;;;;;;3.67;2.33;;;22.60;44.70;;;;;;5046385;28;20470;-68
2024/01/19 12:33:48;;;;;;;1.90;1.80;;;22.50;44.70;;;;;;5058060;28;20442;-68
2024/01/19 12:36:19;;;;;;;1.73;1.63;;;22.50;44.80;;;;;;5050149;28;20455;-68
2024/01/19 12:39:00;;;;;;;1.73;1.63;;;22.50;44.70;;;;;;5052512;28;20454;-69
2024/01/19 12:41:30;;;;;;;2.53;2.10;;;22.60;44.70;;;;;;5050218;28;20461;-71
2024/01/19 12:43:59;;;;;;;2.37;2.17;;;22.70;44.60;;;;;;5051154;28;20451;-69
2024/01/19 12:46:27;;;;;;;2.60;2.13;;;22.70;44.60;;;;;;5048066;28;20454;-69
2024/01/19 12:49:00;;;;;;;4.50;3.57;;;22.80;44.50;;;;;;5050643;28;20473;-68
2024/01/19 12:51:28;;;;;;;5.30;4.67;;;22.80;44.40;;;;;;5053977;28;20465;-68
2024/01/19 12:53:57;;;;;;;4.73;4.30;;;22.90;44.30;;;;;;5055723;28;20458;-68
2024/01/19 12:56:27;;;;;;;6.63;4.93;;;22.90;44.30;;;;;;5058793;28;20463;-68
2024/01/19 12:59:07;;;;;;;8.83;6.70;;;22.90;44.30;;;;;;5039144;28;20440;-68